createdAt,value
2019-02-07T00:01:04.729Z,18.10
2019-02-07T00:03:37.896Z,18.10
2019-02-07T00:06:13.064Z,13.97
2019-02-07T00:08:46.223Z,17.63
2019-02-07T00:11:19.281Z,14.97
2019-02-07T00:13:52.524Z,11.47
2019-02-07T00:16:26.232Z,22.63
2019-02-07T00:18:59.271Z,16.27
2019-02-07T00:21:32.465Z,17.97
2019-02-07T00:24:05.823Z,19.00
2019-02-07T00:26:39.442Z,16.40
2019-02-07T00:29:12.812Z,14.00
2019-02-07T00:31:45.902Z,25.03
2019-02-07T00:34:19.310Z,16.70
2019-02-07T00:36:52.874Z,18.67
2019-02-07T00:39:26.088Z,19.00
2019-02-07T00:41:59.330Z,18.30
2019-02-07T00:44:32.373Z,23.03
2019-02-07T00:47:05.720Z,18.97
2019-02-07T00:49:40.784Z,23.07
2019-02-07T00:52:13.865Z,21.10
2019-02-07T00:54:47.179Z,17.47
2019-02-07T00:57:20.348Z,19.07
2019-02-07T00:59:53.730Z,16.70
2019-02-07T01:02:26.745Z,15.90
2019-02-07T01:05:00.132Z,16.63
2019-02-07T01:07:34.588Z,20.33
2019-02-07T01:10:08.588Z,20.50
2019-02-07T01:12:44.548Z,17.03
2019-02-07T01:15:18.061Z,14.77
2019-02-07T01:17:51.591Z,15.10
2019-02-07T01:20:24.754Z,15.77
2019-02-07T01:23:00.162Z,16.40
2019-02-07T01:25:34.469Z,19.87
2019-02-07T01:28:07.854Z,14.63
2019-02-07T01:30:41.180Z,16.80
2019-02-07T01:33:14.281Z,17.10
2019-02-07T01:35:47.447Z,17.17
2019-02-07T01:38:20.667Z,14.80
2019-02-07T01:40:53.871Z,16.43
2019-02-07T01:43:26.981Z,16.63
2019-02-07T01:46:01.746Z,19.77
2019-02-07T01:48:35.099Z,34.13
2019-02-07T01:51:08.301Z,25.87
2019-02-07T01:53:41.725Z,21.73
2019-02-07T01:56:14.935Z,18.40
2019-02-07T01:58:48.026Z,18.20
2019-02-07T02:01:22.443Z,18.70
2019-02-07T02:03:55.548Z,13.97
2019-02-07T02:06:29.062Z,17.53
2019-02-07T02:09:02.456Z,21.03
2019-02-07T02:11:35.722Z,27.37
2019-02-07T02:14:10.979Z,28.73
2019-02-07T02:16:45.107Z,28.90
2019-02-07T02:19:18.513Z,29.50
2019-02-07T02:21:51.831Z,23.83
2019-02-07T02:24:24.903Z,26.50
2019-02-07T02:26:58.323Z,28.57
2019-02-07T02:29:31.480Z,28.03
2019-02-07T02:32:04.771Z,28.17
2019-02-07T02:34:39.380Z,26.40
2019-02-07T02:37:12.588Z,24.00
2019-02-07T02:39:45.850Z,26.87
2019-02-07T02:42:19.810Z,29.67
2019-02-07T02:44:52.970Z,28.07
2019-02-07T02:47:26.219Z,30.97
2019-02-07T02:49:59.402Z,28.83
2019-02-07T02:52:32.591Z,27.50
2019-02-07T02:55:06.097Z,28.13
2019-02-07T02:57:39.190Z,31.35
2019-02-07T03:00:20.270Z,27.30
2019-02-07T03:03:10.184Z,26.30
2019-02-07T03:06:07.849Z,29.93
2019-02-07T03:08:48.822Z,29.50
2019-02-07T03:11:42.705Z,33.00
2019-02-07T03:14:32.832Z,29.90
2019-02-07T03:17:24.535Z,31.77
2019-02-07T03:20:06.247Z,33.67
2019-02-07T03:22:56.418Z,33.33
2019-02-07T03:25:52.672Z,30.87
2019-02-07T03:28:39.630Z,37.77
2019-02-07T03:31:34.975Z,27.00
2019-02-07T03:34:27.714Z,20.47
2019-02-07T03:37:18.848Z,23.13
2019-02-07T03:40:16.095Z,25.57
2019-02-07T03:43:23.992Z,25.10
2019-02-07T03:46:21.655Z,29.43
2019-02-07T03:49:13.302Z,24.20
2019-02-07T03:52:13.723Z,20.83
2019-02-07T03:55:04.925Z,32.70
2019-02-07T03:58:02.608Z,22.70
2019-02-07T04:00:54.098Z,22.67
2019-02-07T04:03:51.593Z,19.37
2019-02-07T04:06:58.375Z,21.60
2019-02-07T04:09:49.062Z,22.17
2019-02-07T04:12:38.821Z,21.90
2019-02-07T04:15:30.329Z,19.03
2019-02-07T04:18:33.768Z,24.50
2019-02-07T04:21:34.515Z,21.50
2019-02-07T04:24:25.113Z,17.20
2019-02-07T04:27:09.995Z,17.13
2019-02-07T04:30:00.391Z,19.50
2019-02-07T04:33:01.827Z,17.20
2019-02-07T04:35:56.210Z,36.80
2019-02-07T04:38:51.537Z,104.57
2019-02-07T04:41:42.942Z,91.08
2019-02-07T04:44:32.738Z,57.80
2019-02-07T04:47:24.022Z,31.47
2019-02-07T04:50:10.803Z,26.10
2019-02-07T04:53:04.719Z,27.20
2019-02-07T04:55:54.515Z,20.00
2019-02-07T04:58:45.879Z,17.80
2019-02-07T05:01:37.757Z,22.60
2019-02-07T05:04:30.119Z,23.10
2019-02-07T05:07:20.193Z,28.17
2019-02-07T05:10:27.201Z,68.60
2019-02-07T05:13:17.075Z,69.87
2019-02-07T05:16:09.416Z,88.90
2019-02-07T05:19:00.822Z,97.37
2019-02-07T05:21:59.614Z,68.53
2019-02-07T05:24:52.478Z,41.80
2019-02-07T05:27:57.426Z,29.13
2019-02-07T05:30:42.705Z,34.80
2019-02-07T05:33:34.126Z,36.30
2019-02-07T05:36:36.081Z,32.60
2019-02-07T05:39:28.411Z,37.13
2019-02-07T05:42:18.311Z,31.60
2019-02-07T05:45:18.146Z,30.17
2019-02-07T05:48:07.894Z,33.88
2019-02-07T05:51:02.171Z,34.10
2019-02-07T05:53:57.912Z,32.10
2019-02-07T05:56:58.078Z,30.50
2019-02-07T05:59:48.132Z,38.60
2019-02-07T06:02:28.489Z,38.30
2019-02-07T06:05:25.958Z,33.53
2019-02-07T06:08:15.836Z,28.03
2019-02-07T06:11:09.477Z,28.83
2019-02-07T06:14:06.645Z,29.53
2019-02-07T06:17:02.812Z,29.13
2019-02-07T06:19:43.546Z,28.67
2019-02-07T06:22:41.226Z,25.83
2019-02-07T06:25:32.646Z,24.63
2019-02-07T06:28:22.413Z,28.20
2019-02-07T06:31:12.693Z,26.33
2019-02-07T06:34:04.049Z,24.60
2019-02-07T06:37:01.390Z,23.97
2019-02-07T06:39:59.060Z,24.97
2019-02-07T06:42:49.764Z,24.93
2019-02-07T06:45:33.745Z,21.70
2019-02-07T06:48:31.148Z,22.80
2019-02-07T06:51:34.970Z,22.20
2019-02-07T06:54:22.998Z,28.90
2019-02-07T06:57:13.009Z,30.23
2019-02-07T07:00:07.094Z,28.83
2019-02-07T07:03:02.394Z,32.37
2019-02-07T07:05:58.291Z,36.73
2019-02-07T07:08:48.088Z,39.03
2019-02-07T07:11:57.656Z,34.37
2019-02-07T07:14:51.933Z,32.47
2019-02-07T07:17:43.609Z,31.23
2019-02-07T07:20:33.334Z,26.93
2019-02-07T07:23:40.233Z,28.20
2019-02-07T07:26:43.743Z,27.00
2019-02-07T07:29:35.511Z,30.65
2019-02-07T07:32:45.296Z,29.40
2019-02-07T07:35:39.404Z,33.20
2019-02-07T07:38:37.780Z,30.63
2019-02-07T07:41:27.563Z,26.63
2019-02-07T07:44:10.210Z,31.33
2019-02-07T07:46:53.377Z,28.03
2019-02-07T07:49:42.674Z,29.37
2019-02-07T07:52:25.763Z,25.10
2019-02-07T07:55:23.360Z,20.87
2019-02-07T07:58:28.607Z,19.47
2019-02-07T08:01:18.697Z,24.30
2019-02-07T08:04:06.326Z,24.57
2019-02-07T08:07:06.834Z,21.83
2019-02-07T08:10:13.317Z,21.40
2019-02-07T08:13:11.909Z,24.13
2019-02-07T08:16:12.544Z,26.10
2019-02-07T08:19:13.225Z,24.23
2019-02-07T08:22:13.510Z,23.70
2019-02-07T08:25:05.541Z,22.17
2019-02-07T08:28:02.812Z,23.92
2019-02-07T08:30:57.377Z,27.07
2019-02-07T08:33:52.003Z,28.57
2019-02-07T08:36:53.137Z,29.13
2019-02-07T08:39:44.571Z,26.60
2019-02-07T08:42:36.090Z,25.83
2019-02-07T08:45:32.836Z,28.50
2019-02-07T08:48:32.422Z,28.57
2019-02-07T08:51:39.813Z,29.00
2019-02-07T08:54:33.914Z,27.83
2019-02-07T08:57:28.592Z,25.27
2019-02-07T09:00:12.654Z,25.43
2019-02-07T09:03:02.860Z,25.17
2019-02-07T09:05:54.240Z,22.13
2019-02-07T09:08:46.358Z,24.53
2019-02-07T09:11:36.914Z,26.00
2019-02-07T09:14:46.665Z,24.03
2019-02-07T09:17:41.259Z,26.20
2019-02-07T09:20:28.760Z,25.67
2019-02-07T09:23:11.882Z,25.87
2019-02-07T09:26:02.311Z,25.97
2019-02-07T09:28:58.321Z,25.90
2019-02-07T09:31:49.662Z,24.00
2019-02-07T09:34:42.716Z,26.23
2019-02-07T09:37:33.423Z,24.77
2019-02-07T09:40:30.567Z,27.73
2019-02-07T09:43:31.091Z,26.37
2019-02-07T09:46:37.775Z,23.73
2019-02-07T09:49:29.512Z,21.87
2019-02-07T09:52:19.600Z,23.50
2019-02-07T09:55:23.515Z,18.80
2019-02-07T09:58:14.198Z,23.90
2019-02-07T10:01:03.482Z,22.80
2019-02-07T10:03:49.146Z,22.80
2019-02-07T10:06:46.518Z,22.43
2019-02-07T10:09:33.135Z,24.70
2019-02-07T10:12:31.424Z,34.43
2019-02-07T10:15:23.154Z,32.60
2019-02-07T10:18:14.967Z,37.23
2019-02-07T10:21:07.301Z,31.73
2019-02-07T10:23:54.325Z,29.20
2019-02-07T10:26:36.098Z,24.50
2019-02-07T10:29:33.586Z,25.30
2019-02-07T10:32:27.758Z,24.43
2019-02-07T10:35:22.785Z,24.57
2019-02-07T10:38:29.135Z,27.87
2019-02-07T10:41:31.915Z,26.97
2019-02-07T10:44:28.993Z,31.23
2019-02-07T10:47:39.953Z,29.80
2019-02-07T10:50:51.157Z,29.27
2019-02-07T10:53:54.853Z,26.40
2019-02-07T10:56:43.447Z,30.97
2019-02-07T10:59:35.633Z,31.57
2019-02-07T11:02:44.277Z,26.97
2019-02-07T11:05:27.400Z,28.17
2019-02-07T11:08:09.178Z,25.73
2019-02-07T11:10:59.571Z,28.67
2019-02-07T11:14:09.222Z,38.30
2019-02-07T11:17:06.578Z,33.23
2019-02-07T11:20:00.965Z,26.37
2019-02-07T11:22:55.487Z,26.00
2019-02-07T11:25:45.141Z,28.97
2019-02-07T11:28:47.427Z,27.83
2019-02-07T11:31:51.956Z,29.47
2019-02-07T11:34:45.880Z,27.03
2019-02-07T11:37:35.209Z,28.70
2019-02-07T11:40:27.143Z,34.50
2019-02-07T11:43:21.161Z,47.70
2019-02-07T11:46:39.981Z,43.47
2019-02-07T11:49:22.202Z,39.60
2019-02-07T11:52:14.066Z,41.50
2019-02-07T11:55:11.680Z,42.70
2019-02-07T11:58:10.667Z,55.23
2019-02-07T12:01:13.455Z,31.93
2019-02-07T12:04:02.660Z,43.03
2019-02-07T12:06:55.152Z,41.97
2019-02-07T12:09:45.273Z,42.40
2019-02-07T12:12:44.895Z,48.40
2019-02-07T12:15:55.044Z,35.43
2019-02-07T12:18:44.905Z,42.17
2019-02-07T12:21:31.780Z,63.67
2019-02-07T12:24:21.824Z,35.40
2019-02-07T12:27:17.149Z,43.80
2019-02-07T12:30:22.989Z,38.57
2019-02-07T12:33:26.881Z,36.97
2019-02-07T12:36:07.775Z,44.47
2019-02-07T12:39:01.994Z,74.07
2019-02-07T12:41:56.350Z,76.43
2019-02-07T12:44:46.649Z,68.37
2019-02-07T12:47:50.822Z,55.83
2019-02-07T12:50:49.856Z,43.40
2019-02-07T12:53:57.769Z,46.87
2019-02-07T12:57:01.161Z,48.37
2019-02-07T12:59:52.491Z,47.73
2019-02-07T13:02:57.101Z,41.23
2019-02-07T13:05:48.640Z,46.30
2019-02-07T13:08:39.635Z,87.13
2019-02-07T13:11:33.916Z,46.93
2019-02-07T13:14:35.160Z,45.10
2019-02-07T13:17:23.988Z,46.23
2019-02-07T13:20:26.709Z,49.57
2019-02-07T13:23:16.514Z,49.73
2019-02-07T13:26:04.234Z,55.77
2019-02-07T13:28:58.434Z,50.60
2019-02-07T13:32:21.414Z,62.30
2019-02-07T13:35:11.228Z,48.95
2019-02-07T13:37:51.027Z,45.47
2019-02-07T13:40:55.830Z,41.13
2019-02-07T13:43:42.993Z,38.20
2019-02-07T13:46:26.817Z,42.03
2019-02-07T13:49:36.521Z,40.33
2019-02-07T13:52:41.886Z,48.87
2019-02-07T13:55:45.263Z,36.60
2019-02-07T13:58:47.708Z,33.03
2019-02-07T14:01:51.665Z,36.40
2019-02-07T14:04:50.456Z,39.07
2019-02-07T14:08:11.827Z,35.40
2019-02-07T14:11:06.069Z,35.03
2019-02-07T14:14:05.708Z,37.57
2019-02-07T14:16:49.973Z,30.70
2019-02-07T14:20:03.661Z,27.67
2019-02-07T14:22:52.776Z,27.47
2019-02-07T14:25:35.828Z,19.67
2019-02-07T14:28:29.102Z,25.83
2019-02-07T14:31:20.696Z,30.23
2019-02-07T14:34:14.559Z,33.63
2019-02-07T14:37:04.550Z,30.57
2019-02-07T14:40:00.479Z,25.40
2019-02-07T14:42:56.615Z,25.97
2019-02-07T14:45:56.735Z,26.53
2019-02-07T14:48:30.223Z,32.63
2019-02-07T14:51:03.042Z,22.27
2019-02-07T14:53:38.931Z,23.93
2019-02-07T14:56:15.485Z,23.07
2019-02-07T14:58:48.805Z,20.00
2019-02-07T15:01:23.394Z,28.60
2019-02-07T15:03:56.441Z,19.47
2019-02-07T15:06:29.507Z,85.80
2019-02-07T15:09:02.819Z,24.17
2019-02-07T15:11:37.138Z,19.27
2019-02-07T15:14:10.330Z,19.20
2019-02-07T15:16:46.935Z,21.43
2019-02-07T15:19:20.215Z,17.60
2019-02-07T15:21:53.806Z,17.83
2019-02-07T15:24:26.908Z,21.40
2019-02-07T15:27:02.046Z,19.87
2019-02-07T15:29:35.207Z,24.27
2019-02-07T15:32:11.116Z,22.77
2019-02-07T15:34:44.469Z,19.07
2019-02-07T15:37:18.595Z,18.83
2019-02-07T15:39:51.927Z,23.63
2019-02-07T15:42:25.365Z,22.47
2019-02-07T15:44:59.040Z,19.00
2019-02-07T15:47:35.627Z,19.67
2019-02-07T15:50:15.870Z,28.75
2019-02-07T15:52:52.027Z,29.07
2019-02-07T15:55:24.625Z,28.50
2019-02-07T15:57:57.803Z,20.87
2019-02-07T16:00:47.850Z,21.70
2019-02-07T16:03:46.820Z,24.97
2019-02-07T16:06:21.757Z,26.30
2019-02-07T16:08:55.378Z,24.00
2019-02-07T16:11:28.552Z,20.50
2019-02-07T16:14:01.688Z,19.60
2019-02-07T16:16:34.880Z,18.97
2019-02-07T16:19:09.684Z,16.57
2019-02-07T16:21:46.395Z,21.70
2019-02-07T16:24:19.624Z,17.20
2019-02-07T16:27:00.153Z,18.93
2019-02-07T16:29:34.102Z,21.50
2019-02-07T16:32:09.931Z,22.97
2019-02-07T16:34:43.550Z,21.10
2019-02-07T16:37:20.324Z,17.97
2019-02-07T16:39:54.070Z,22.50
2019-02-07T16:42:27.468Z,25.63
2019-02-07T16:45:00.589Z,17.70
2019-02-07T16:47:36.018Z,20.80
2019-02-07T16:50:11.109Z,23.63
2019-02-07T16:52:44.364Z,19.23
2019-02-07T16:55:18.844Z,20.43
2019-02-07T16:57:52.189Z,17.27
2019-02-07T17:00:27.750Z,19.60
2019-02-07T17:06:56.370Z,18.93
2019-02-07T17:10:41.764Z,19.77
2019-02-07T17:13:14.297Z,16.93
2019-02-07T17:15:56.882Z,19.20
2019-02-07T17:18:31.523Z,16.30
2019-02-07T17:21:11.567Z,22.50
2019-02-07T17:23:41.383Z,16.37
2019-02-07T17:26:37.164Z,19.57
2019-02-07T17:29:10.520Z,15.90
2019-02-07T18:23:29.454Z,18.00
